Time,TemperatureF,DewpointF,PressureIn,WindDirection,WindDirectionDegrees,WindSpeedMPH,WindSpeedGustMPH,Humidity,HourlyPrecipIn,Conditions,Clouds,dailyrainin,SoftwareType,DateUTC
2013-03-07 00:00:00,33.0,28.7,30.24,NW,322,0.0,0.0,84,0.00,,,0.00,Wunderground v.1.15,2013-03-07 05:00:00,
2013-03-07 00:05:00,33.0,28.7,30.24,NW,322,0.0,0.0,84,0.00,,,0.00,Wunderground v.1.15,2013-03-07 05:05:00,
2013-03-07 00:10:00,32.9,28.6,30.24,NW,318,0.0,0.0,84,0.00,,,0.00,Wunderground v.1.15,2013-03-07 05:10:00,
2013-03-07 00:15:00,32.9,28.6,30.24,NW,316,0.0,0.0,84,0.00,,,0.00,Wunderground v.1.15,2013-03-07 05:15:00,
2013-03-07 00:20:00,32.9,28.6,30.24,NNW,327,0.0,0.0,84,0.00,,,0.00,Wunderground v.1.15,2013-03-07 05:20:00,
2013-03-07 00:25:00,32.9,28.6,30.24,NNW,327,0.0,1.0,84,0.00,,,0.00,Wunderground v.1.15,2013-03-07 05:25:00,
2013-03-07 00:30:00,32.9,28.6,30.24,WSW,252,0.0,1.0,84,0.00,,,0.00,Wunderground v.1.15,2013-03-07 05:30:00,
2013-03-07 00:35:00,32.9,28.6,30.24,WNW,297,0.0,1.0,84,0.00,,,0.00,Wunderground v.1.15,2013-03-07 05:35:00,
2013-03-07 00:40:00,32.9,28.9,30.24,WNW,298,0.0,0.0,85,0.00,,,0.00,Wunderground v.1.15,2013-03-07 05:40:00,
2013-03-07 00:45:00,32.8,28.8,30.24,WNW,297,0.0,0.0,85,0.00,,,0.00,Wunderground v.1.15,2013-03-07 05:45:00,
2013-03-07 00:55:00,32.7,28.7,30.24,WSW,250,0.0,0.0,85,0.00,,,0.00,Wunderground v.1.15,2013-03-07 05:55:00,
2013-03-07 01:00:00,32.7,28.7,30.24,WNW,283,0.0,1.0,85,0.00,,,0.00,Wunderground v.1.15,2013-03-07 06:00:00,
2013-03-07 01:05:00,32.7,28.7,30.24,West,281,1.0,1.0,85,0.00,,,0.00,Wunderground v.1.15,2013-03-07 06:05:00,
2013-03-07 01:10:00,32.7,28.7,30.24,West,281,0.0,0.0,85,0.00,,,0.00,Wunderground v.1.15,2013-03-07 06:10:00,
2013-03-07 01:15:00,32.7,28.7,30.24,West,281,0.0,0.0,85,0.00,,,0.00,Wunderground v.1.15,2013-03-07 06:15:00,
2013-03-07 01:25:00,32.7,28.7,30.24,WNW,290,0.0,0.0,85,0.00,,,0.00,Wunderground v.1.15,2013-03-07 06:25:00,
2013-03-07 01:30:00,32.7,28.7,30.24,WNW,289,0.0,0.0,85,0.00,,,0.00,Wunderground v.1.15,2013-03-07 06:30:00,
2013-03-07 01:35:00,32.6,28.9,30.24,WNW,290,0.0,0.0,86,0.00,,,0.00,Wunderground v.1.15,2013-03-07 06:35:00,
2013-03-07 01:40:00,32.5,28.8,30.24,WNW,289,0.0,0.0,86,0.00,,,0.00,Wunderground v.1.15,2013-03-07 06:40:00,
2013-03-07 01:45:00,32.5,28.8,30.25,WNW,290,0.0,0.0,86,0.00,,,0.00,Wunderground v.1.15,2013-03-07 06:45:00,
2013-03-07 01:55:00,32.5,28.5,30.24,WNW,290,0.0,0.0,85,0.00,,,0.00,Wunderground v.1.15,2013-03-07 06:55:00,
2013-03-07 02:00:00,32.6,28.6,30.24,WNW,289,0.0,0.0,85,0.00,,,0.00,Wunderground v.1.15,2013-03-07 07:00:00,
2013-03-07 02:05:00,32.5,28.5,30.24,WNW,290,0.0,0.0,85,0.00,,,0.00,Wunderground v.1.15,2013-03-07 07:05:00,
2013-03-07 02:10:00,32.4,28.7,30.24,WNW,290,0.0,0.0,86,0.00,,,0.00,Wunderground v.1.15,2013-03-07 07:10:00,
2013-03-07 02:15:00,32.3,28.6,30.24,WNW,290,0.0,0.0,86,0.00,,,0.00,Wunderground v.1.15,2013-03-07 07:15:00,
2013-03-07 02:20:00,32.2,28.5,30.24,WNW,290,0.0,0.0,86,0.00,,,0.00,Wunderground v.1.15,2013-03-07 07:20:00,
2013-03-07 02:30:00,32.0,28.3,30.24,WNW,289,0.0,0.0,86,0.00,,,0.00,Wunderground v.1.15,2013-03-07 07:30:00,
2013-03-07 02:35:00,32.0,28.6,30.25,WNW,290,0.0,0.0,87,0.00,,,0.00,Wunderground v.1.15,2013-03-07 07:35:00,
2013-03-07 02:40:00,31.9,28.2,30.25,WNW,289,0.0,0.0,86,0.00,,,0.00,Wunderground v.1.15,2013-03-07 07:40:00,
2013-03-07 02:45:00,32.0,28.6,30.25,WNW,290,0.0,0.0,87,0.00,,,0.00,Wunderground v.1.15,2013-03-07 07:45:00,
2013-03-07 02:55:00,32.0,28.3,30.25,WNW,289,0.0,0.0,86,0.00,,,0.00,Wunderground v.1.15,2013-03-07 07:55:00,
2013-03-07 03:00:00,32.0,28.3,30.24,WNW,290,0.0,0.0,86,0.00,,,0.00,Wunderground v.1.15,2013-03-07 08:00:00,
2013-03-07 03:05:00,31.9,28.2,30.24,WNW,290,0.0,0.0,86,0.00,,,0.00,Wunderground v.1.15,2013-03-07 08:05:00,
2013-03-07 03:15:00,32.0,28.3,30.24,WNW,295,0.0,0.0,86,0.00,,,0.00,Wunderground v.1.15,2013-03-07 08:15:00,
2013-03-07 03:25:00,31.9,28.2,30.24,WNW,295,0.0,0.0,86,0.00,,,0.00,Wunderground v.1.15,2013-03-07 08:25:00,
2013-03-07 03:30:00,31.9,28.2,30.24,WNW,295,0.0,0.0,86,0.00,,,0.00,Wunderground v.1.15,2013-03-07 08:30:00,
2013-03-07 03:35:00,31.8,28.1,30.25,WNW,295,0.0,0.0,86,0.00,,,0.00,Wunderground v.1.15,2013-03-07 08:35:00,
2013-03-07 03:40:00,31.7,28.3,30.25,WNW,295,0.0,0.0,87,0.00,,,0.00,Wunderground v.1.15,2013-03-07 08:40:00,
2013-03-07 03:45:00,31.7,28.3,30.25,WNW,295,0.0,0.0,87,0.00,,,0.00,Wunderground v.1.15,2013-03-07 08:45:00,
2013-03-07 03:55:00,31.6,28.2,30.25,WNW,295,0.0,0.0,87,0.00,,,0.00,Wunderground v.1.15,2013-03-07 08:55:00,
2013-03-07 04:00:00,31.5,28.1,30.25,WNW,295,0.0,0.0,87,0.00,,,0.00,Wunderground v.1.15,2013-03-07 09:00:00,
2013-03-07 04:05:00,31.3,28.2,30.25,WNW,295,0.0,0.0,88,0.00,,,0.00,Wunderground v.1.15,2013-03-07 09:05:00,
2013-03-07 04:10:00,31.2,28.3,30.25,WNW,295,0.0,0.0,89,0.00,,,0.00,Wunderground v.1.15,2013-03-07 09:10:00,
2013-03-07 04:20:00,31.0,28.1,30.26,WNW,295,0.0,0.0,89,0.00,,,0.00,Wunderground v.1.15,2013-03-07 09:20:00,
2013-03-07 04:25:00,30.9,28.0,30.26,WNW,295,0.0,0.0,89,0.00,,,0.00,Wunderground v.1.15,2013-03-07 09:25:00,
2013-03-07 04:30:00,30.9,28.3,30.26,WNW,295,0.0,0.0,90,0.00,,,0.00,Wunderground v.1.15,2013-03-07 09:30:00,
2013-03-07 04:40:00,30.8,28.5,30.26,WNW,295,0.0,0.0,91,0.00,,,0.00,Wunderground v.1.15,2013-03-07 09:40:00,
2013-03-07 04:50:00,31.0,28.4,30.26,NW,316,0.0,0.0,90,0.00,,,0.00,Wunderground v.1.15,2013-03-07 09:50:00,
2013-03-07 04:55:00,31.2,28.3,30.26,WNW,288,0.0,0.0,89,0.00,,,0.00,Wunderground v.1.15,2013-03-07 09:55:00,
2013-03-07 05:00:00,31.2,28.3,30.26,NNW,329,0.0,0.0,89,0.00,,,0.00,Wunderground v.1.15,2013-03-07 10:00:00,
2013-03-07 05:10:00,31.1,28.2,30.27,NNW,329,0.0,0.0,89,0.00,,,0.00,Wunderground v.1.15,2013-03-07 10:10:00,
2013-03-07 05:15:00,31.0,28.1,30.27,NNW,329,0.0,0.0,89,0.00,,,0.00,Wunderground v.1.15,2013-03-07 10:15:00,
2013-03-07 05:20:00,31.0,28.1,30.27,NNW,328,0.0,0.0,89,0.00,,,0.00,Wunderground v.1.15,2013-03-07 10:20:00,
2013-03-07 05:25:00,30.9,28.0,30.27,WNW,285,0.0,0.0,89,0.00,,,0.00,Wunderground v.1.15,2013-03-07 10:25:00,
2013-03-07 05:30:00,30.8,27.9,30.27,WNW,285,0.0,0.0,89,0.00,,,0.00,Wunderground v.1.15,2013-03-07 10:30:00,
2013-03-07 05:40:00,30.6,28.0,30.27,WNW,285,0.0,0.0,90,0.00,,,0.00,Wunderground v.1.15,2013-03-07 10:40:00,
2013-03-07 05:45:00,30.5,27.9,30.27,WNW,285,0.0,0.0,90,0.00,,,0.00,Wunderground v.1.15,2013-03-07 10:45:00,
2013-03-07 05:50:00,30.4,27.8,30.27,WNW,285,0.0,0.0,90,0.00,,,0.00,Wunderground v.1.15,2013-03-07 10:50:00,
2013-03-07 06:00:00,30.3,27.7,30.28,NNW,331,0.0,0.0,90,0.00,,,0.00,Wunderground v.1.15,2013-03-07 11:00:00,
2013-03-07 06:05:00,30.2,27.6,30.28,NNW,331,0.0,0.0,90,0.00,,,0.00,Wunderground v.1.15,2013-03-07 11:05:00,
2013-03-07 06:10:00,30.1,27.5,30.28,NNW,331,0.0,0.0,90,0.00,,,0.00,Wunderground v.1.15,2013-03-07 11:10:00,
2013-03-07 06:20:00,30.6,28.3,30.28,NNW,330,0.0,0.0,91,0.00,,,0.00,Wunderground v.1.15,2013-03-07 11:20:00,
2013-03-07 06:30:00,31.4,28.5,30.28,West,276,1.0,1.0,89,0.00,,,0.00,Wunderground v.1.15,2013-03-07 11:30:00,
2013-03-07 06:35:00,31.7,28.8,30.29,WNW,287,1.0,1.0,89,0.00,,,0.00,Wunderground v.1.15,2013-03-07 11:35:00,
2013-03-07 06:40:00,31.9,28.8,30.29,West,270,1.0,1.0,88,0.00,,,0.00,Wunderground v.1.15,2013-03-07 11:40:00,
2013-03-07 06:45:00,32.0,28.8,30.29,WNW,290,1.0,1.0,88,0.00,,,0.00,Wunderground v.1.15,2013-03-07 11:45:00,
2013-03-07 06:50:00,32.1,28.9,30.29,WNW,284,1.0,1.0,88,0.00,,,0.00,Wunderground v.1.15,2013-03-07 11:50:00,
2013-03-07 06:55:00,32.1,28.9,30.29,WNW,300,1.0,2.0,88,0.00,,,0.00,Wunderground v.1.15,2013-03-07 11:55:00,
2013-03-07 07:05:00,32.2,29.0,30.29,West,276,1.0,1.0,88,0.00,,,0.00,Wunderground v.1.15,2013-03-07 12:05:00,
2013-03-07 07:10:00,32.1,28.9,30.29,WNW,283,1.0,1.0,88,0.00,,,0.00,Wunderground v.1.15,2013-03-07 12:10:00,
2013-03-07 07:15:00,32.1,28.9,30.29,WNW,293,1.0,2.0,88,0.00,,,0.00,Wunderground v.1.15,2013-03-07 12:15:00,
2013-03-07 07:25:00,31.9,28.8,30.30,NNW,327,1.0,2.0,88,0.00,,,0.00,Wunderground v.1.15,2013-03-07 12:25:00,
2013-03-07 07:30:00,31.8,28.7,30.30,NW,309,1.0,4.0,88,0.00,,,0.00,Wunderground v.1.15,2013-03-07 12:30:00,
2013-03-07 07:35:00,31.8,28.7,30.30,NW,325,2.0,4.0,88,0.00,,,0.00,Wunderground v.1.15,2013-03-07 12:35:00,
2013-03-07 07:40:00,31.8,28.7,30.30,NNW,331,2.0,2.0,88,0.00,,,0.00,Wunderground v.1.15,2013-03-07 12:40:00,
2013-03-07 07:45:00,31.8,28.9,30.30,WNW,291,2.0,3.0,89,0.00,,,0.00,Wunderground v.1.15,2013-03-07 12:45:00,
2013-03-07 07:55:00,31.8,28.9,30.31,NW,323,1.0,2.0,89,0.00,,,0.00,Wunderground v.1.15,2013-03-07 12:55:00,
2013-03-07 08:00:00,31.8,28.9,30.31,NNW,342,1.0,1.0,89,0.00,,,0.00,Wunderground v.1.15,2013-03-07 13:00:00,
2013-03-07 08:05:00,31.8,28.9,30.31,NNW,347,1.0,1.0,89,0.00,,,0.00,Wunderground v.1.15,2013-03-07 13:05:00,
2013-03-07 08:10:00,31.9,29.0,30.31,NW,308,0.0,0.0,89,0.00,,,0.00,Wunderground v.1.15,2013-03-07 13:10:00,
2013-03-07 08:20:00,32.3,29.1,30.32,NNW,335,1.0,1.0,88,0.00,,,0.00,Wunderground v.1.15,2013-03-07 13:20:00,
2013-03-07 08:30:00,32.5,29.3,30.32,West,267,1.0,1.0,88,0.00,,,0.00,Wunderground v.1.15,2013-03-07 13:30:00,
2013-03-07 08:35:00,32.5,29.3,30.32,WNW,296,2.0,2.0,88,0.00,,,0.00,Wunderground v.1.15,2013-03-07 13:35:00,
2013-03-07 08:40:00,32.5,29.3,30.33,NW,304,1.0,2.0,88,0.00,,,0.00,Wunderground v.1.15,2013-03-07 13:40:00,
2013-03-07 08:45:00,32.7,29.5,30.33,NNW,347,1.0,5.0,88,0.00,,,0.00,Wunderground v.1.15,2013-03-07 13:45:00,
2013-03-07 08:55:00,33.2,29.8,30.33,NNW,330,2.0,2.0,87,0.00,,,0.00,Wunderground v.1.15,2013-03-07 13:55:00,
2013-03-07 09:00:00,34.0,30.5,30.33,NW,320,2.0,3.0,87,0.00,,,0.00,Wunderground v.1.15,2013-03-07 14:00:00,
2013-03-07 09:05:00,34.6,30.6,30.33,NW,323,3.0,3.0,85,0.00,,,0.00,Wunderground v.1.15,2013-03-07 14:05:00,
2013-03-07 09:10:00,35.0,30.7,30.33,WNW,300,3.0,3.0,84,0.00,,,0.00,Wunderground v.1.15,2013-03-07 14:10:00,
2013-03-07 09:15:00,34.7,30.4,30.33,West,278,3.0,3.0,84,0.00,,,0.00,Wunderground v.1.15,2013-03-07 14:15:00,
2013-03-07 09:20:00,34.5,30.2,30.33,North,1,3.0,4.0,84,0.00,,,0.00,Wunderground v.1.15,2013-03-07 14:20:00,
2013-03-07 09:30:00,34.7,30.4,30.34,West,264,3.0,4.0,84,0.00,,,0.00,Wunderground v.1.15,2013-03-07 14:30:00,
2013-03-07 09:35:00,34.8,30.5,30.34,NW,321,3.0,4.0,84,0.00,,,0.00,Wunderground v.1.15,2013-03-07 14:35:00,
2013-03-07 09:40:00,34.8,30.5,30.34,WNW,300,3.0,4.0,84,0.00,,,0.00,Wunderground v.1.15,2013-03-07 14:40:00,
2013-03-07 09:45:00,34.6,30.3,30.35,NW,308,2.0,4.0,84,0.00,,,0.00,Wunderground v.1.15,2013-03-07 14:45:00,
2013-03-07 09:50:00,34.5,30.2,30.34,NW,304,3.0,3.0,84,0.00,,,0.00,Wunderground v.1.15,2013-03-07 14:50:00,
2013-03-07 10:00:00,34.4,30.4,30.35,North,8,3.0,4.0,85,0.00,,,0.00,Wunderground v.1.15,2013-03-07 15:00:00,
2013-03-07 10:10:00,34.4,30.1,30.34,NNW,339,2.0,4.0,84,0.00,,,0.00,Wunderground v.1.15,2013-03-07 15:10:00,
2013-03-07 10:15:00,34.3,30.0,30.34,North,356,4.0,4.0,84,0.00,,,0.00,Wunderground v.1.15,2013-03-07 15:15:00,
2013-03-07 10:20:00,34.3,30.3,30.35,NW,322,4.0,4.0,85,0.00,,,0.00,Wunderground v.1.15,2013-03-07 15:20:00,
2013-03-07 10:25:00,34.3,30.0,30.35,NNW,343,3.0,4.0,84,0.00,,,0.00,Wunderground v.1.15,2013-03-07 15:25:00,
2013-03-07 10:30:00,34.2,30.2,30.35,WNW,288,4.0,4.0,85,0.00,,,0.00,Wunderground v.1.15,2013-03-07 15:30:00,
2013-03-07 10:40:00,34.3,30.3,30.35,North,358,3.0,6.0,85,0.00,,,0.00,Wunderground v.1.15,2013-03-07 15:40:00,
2013-03-07 10:45:00,34.6,30.3,30.35,NNW,335,3.0,6.0,84,0.00,,,0.00,Wunderground v.1.15,2013-03-07 15:45:00,
2013-03-07 10:55:00,35.2,30.6,30.35,NW,323,2.0,6.0,83,0.00,,,0.00,Wunderground v.1.15,2013-03-07 15:55:00,
2013-03-07 11:00:00,35.4,30.5,30.35,WNW,293,3.0,4.0,82,0.00,,,0.00,Wunderground v.1.15,2013-03-07 16:00:00,
2013-03-07 11:05:00,35.4,30.1,30.35,SW,231,4.0,4.0,81,0.00,,,0.00,Wunderground v.1.15,2013-03-07 16:05:00,
2013-03-07 11:10:00,35.4,29.8,30.35,North,1,5.0,5.0,80,0.00,,,0.00,Wunderground v.1.15,2013-03-07 16:10:00,
2013-03-07 11:15:00,35.3,29.7,30.36,NW,322,6.0,6.0,80,0.00,,,0.00,Wunderground v.1.15,2013-03-07 16:15:00,
2013-03-07 11:20:00,35.1,29.2,30.36,NNW,339,5.0,6.0,79,0.00,,,0.00,Wunderground v.1.15,2013-03-07 16:20:00,
2013-03-07 11:30:00,35.7,29.8,30.36,NNW,343,3.0,10.0,79,0.00,,,0.00,Wunderground v.1.15,2013-03-07 16:30:00,
2013-03-07 11:35:00,35.4,29.8,30.36,NNW,347,4.0,10.0,80,0.00,,,0.00,Wunderground v.1.15,2013-03-07 16:35:00,
2013-03-07 11:40:00,35.5,29.6,30.35,NNW,331,3.0,5.0,79,0.00,,,0.00,Wunderground v.1.15,2013-03-07 16:40:00,
2013-03-07 11:45:00,35.2,29.0,30.36,NW,316,4.0,5.0,78,0.00,,,0.00,Wunderground v.1.15,2013-03-07 16:45:00,
2013-03-07 11:50:00,35.5,29.0,30.36,NNW,339,4.0,6.0,77,0.00,,,0.00,Wunderground v.1.15,2013-03-07 16:50:00,
2013-03-07 11:55:00,35.5,29.0,30.36,WNW,298,4.0,6.0,77,0.00,,,0.00,Wunderground v.1.15,2013-03-07 16:55:00,
2013-03-07 12:05:00,35.3,28.8,30.36,North,8,5.0,5.0,77,0.00,,,0.00,Wunderground v.1.15,2013-03-07 17:05:00,
2013-03-07 12:10:00,35.3,28.8,30.36,West,274,5.0,5.0,77,0.00,,,0.00,Wunderground v.1.15,2013-03-07 17:10:00,
2013-03-07 12:15:00,35.3,28.5,30.36,NW,312,4.0,5.0,76,0.00,,,0.00,Wunderground v.1.15,2013-03-07 17:15:00,
2013-03-07 12:25:00,35.9,28.4,30.36,NNW,345,3.0,3.0,74,0.00,,,0.00,Wunderground v.1.15,2013-03-07 17:25:00,
2013-03-07 12:30:00,36.0,28.5,30.36,NW,312,4.0,4.0,74,0.00,,,0.00,Wunderground v.1.15,2013-03-07 17:30:00,
2013-03-07 12:35:00,36.2,28.4,30.35,WNW,287,4.0,5.0,73,0.00,,,0.00,Wunderground v.1.15,2013-03-07 17:35:00,
2013-03-07 12:40:00,36.4,28.2,30.35,WNW,295,4.0,7.0,72,0.00,,,0.00,Wunderground v.1.15,2013-03-07 17:40:00,
2013-03-07 12:50:00,35.8,27.7,30.36,WNW,294,5.0,5.0,72,0.00,,,0.00,Wunderground v.1.15,2013-03-07 17:50:00,
2013-03-07 12:55:00,35.7,27.9,30.36,NW,316,4.0,5.0,73,0.00,,,0.00,Wunderground v.1.15,2013-03-07 17:55:00,
2013-03-07 13:00:00,36.0,27.8,30.36,WNW,289,3.0,3.0,72,0.00,,,0.00,Wunderground v.1.15,2013-03-07 18:00:00,
2013-03-07 13:05:00,35.8,27.3,30.36,NW,304,4.0,6.0,71,0.00,,,0.00,Wunderground v.1.15,2013-03-07 18:05:00,
2013-03-07 13:15:00,35.7,27.6,30.36,NW,315,4.0,6.0,72,0.00,,,0.00,Wunderground v.1.15,2013-03-07 18:15:00,
2013-03-07 13:20:00,35.6,27.5,30.35,NW,304,3.0,4.0,72,0.00,,,0.00,Wunderground v.1.15,2013-03-07 18:20:00,
2013-03-07 13:25:00,35.6,27.5,30.35,NNW,339,3.0,4.0,72,0.00,,,0.00,Wunderground v.1.15,2013-03-07 18:25:00,
2013-03-07 13:35:00,35.5,27.0,30.35,NNW,332,4.0,4.0,71,0.00,,,0.00,Wunderground v.1.15,2013-03-07 18:35:00,
2013-03-07 13:40:00,35.4,27.3,30.35,NW,305,5.0,5.0,72,0.00,,,0.00,Wunderground v.1.15,2013-03-07 18:40:00,
2013-03-07 13:45:00,35.5,27.4,30.36,North,6,5.0,7.0,72,0.00,,,0.00,Wunderground v.1.15,2013-03-07 18:45:00,
2013-03-07 13:50:00,35.7,27.6,30.35,NNW,330,4.0,4.0,72,0.00,,,0.00,Wunderground v.1.15,2013-03-07 18:50:00,
2013-03-07 13:55:00,35.8,27.3,30.35,NNW,340,4.0,4.0,71,0.00,,,0.00,Wunderground v.1.15,2013-03-07 18:55:00,
2013-03-07 14:00:00,35.9,27.1,30.35,NE,53,4.0,4.0,70,0.00,,,0.00,Wunderground v.1.15,2013-03-07 19:00:00,
2013-03-07 14:10:00,35.8,27.0,30.35,NNW,343,4.0,4.0,70,0.00,,,0.00,Wunderground v.1.15,2013-03-07 19:10:00,
2013-03-07 14:20:00,35.9,26.7,30.35,NNW,329,4.0,4.0,69,0.00,,,0.00,Wunderground v.1.15,2013-03-07 19:20:00,
2013-03-07 14:25:00,35.9,26.7,30.35,WNW,297,4.0,4.0,69,0.00,,,0.00,Wunderground v.1.15,2013-03-07 19:25:00,
2013-03-07 14:35:00,35.7,26.5,30.36,WNW,294,3.0,4.0,69,0.00,,,0.00,Wunderground v.1.15,2013-03-07 19:35:00,
2013-03-07 14:40:00,35.6,26.4,30.36,WNW,300,2.0,2.0,69,0.00,,,0.00,Wunderground v.1.15,2013-03-07 19:40:00,
2013-03-07 14:45:00,35.6,26.4,30.36,NNE,25,3.0,6.0,69,0.00,,,0.00,Wunderground v.1.15,2013-03-07 19:45:00,
2013-03-07 14:50:00,35.7,26.9,30.36,NNW,329,3.0,3.0,70,0.00,,,0.00,Wunderground v.1.15,2013-03-07 19:50:00,
2013-03-07 15:00:00,36.0,26.5,30.36,NNE,28,3.0,4.0,68,0.00,,,0.00,Wunderground v.1.15,2013-03-07 20:00:00,
2013-03-07 15:05:00,35.8,26.3,30.36,NNE,18,3.0,5.0,68,0.00,,,0.00,Wunderground v.1.15,2013-03-07 20:05:00,
2013-03-07 15:10:00,35.4,26.2,30.36,NW,320,4.0,5.0,69,0.00,,,0.00,Wunderground v.1.15,2013-03-07 20:10:00,
2013-03-07 15:15:00,35.3,26.1,30.36,NNW,333,4.0,5.0,69,0.00,,,0.00,Wunderground v.1.15,2013-03-07 20:15:00,
2013-03-07 15:25:00,35.2,26.0,30.37,NNW,346,4.0,4.0,69,0.00,,,0.00,Wunderground v.1.15,2013-03-07 20:25:00,
2013-03-07 15:30:00,35.4,26.9,30.36,NW,316,3.0,3.0,71,0.00,,,0.00,Wunderground v.1.15,2013-03-07 20:30:00,
2013-03-07 15:40:00,35.1,25.9,30.36,NNE,26,4.0,4.0,69,0.00,,,0.00,Wunderground v.1.15,2013-03-07 20:40:00,
2013-03-07 15:45:00,34.9,25.4,30.37,NNE,26,5.0,5.0,68,0.00,,,0.00,Wunderground v.1.15,2013-03-07 20:45:00,
2013-03-07 15:50:00,35.0,26.2,30.36,NNE,29,4.0,4.0,70,0.00,,,0.00,Wunderground v.1.15,2013-03-07 20:50:00,
2013-03-07 15:55:00,35.1,25.9,30.37,NW,316,4.0,5.0,69,0.00,,,0.00,Wunderground v.1.15,2013-03-07 20:55:00,
2013-03-07 16:00:00,34.8,26.0,30.37,West,271,4.0,4.0,70,0.00,,,0.00,Wunderground v.1.15,2013-03-07 21:00:00,
2013-03-07 16:10:00,34.8,26.0,30.37,North,4,3.0,7.0,70,0.00,,,0.00,Wunderground v.1.15,2013-03-07 21:10:00,
2013-03-07 16:15:00,34.5,25.7,30.37,North,6,4.0,7.0,70,0.00,,,0.00,Wunderground v.1.15,2013-03-07 21:15:00,
2013-03-07 16:20:00,34.4,26.0,30.37,NW,322,4.0,4.0,71,0.00,,,0.00,Wunderground v.1.15,2013-03-07 21:20:00,
2013-03-07 16:25:00,34.4,25.6,30.37,NW,322,3.0,4.0,70,0.00,,,0.00,Wunderground v.1.15,2013-03-07 21:25:00,
2013-03-07 16:35:00,34.5,26.1,30.37,NNW,333,3.0,3.0,71,0.00,,,0.00,Wunderground v.1.15,2013-03-07 21:35:00,
2013-03-07 16:40:00,34.5,26.1,30.38,NE,43,2.0,5.0,71,0.00,,,0.00,Wunderground v.1.15,2013-03-07 21:40:00,
2013-03-07 16:45:00,34.4,25.6,30.38,NNE,12,3.0,5.0,70,0.00,,,0.00,Wunderground v.1.15,2013-03-07 21:45:00,
2013-03-07 16:50:00,34.4,25.6,30.38,North,353,4.0,4.0,70,0.00,,,0.00,Wunderground v.1.15,2013-03-07 21:50:00,
2013-03-07 16:55:00,34.3,25.5,30.37,NW,323,4.0,4.0,70,0.00,,,0.00,Wunderground v.1.15,2013-03-07 21:55:00,
2013-03-07 17:05:00,34.3,25.5,30.37,NW,308,3.0,4.0,70,0.00,,,0.00,Wunderground v.1.15,2013-03-07 22:05:00,
2013-03-07 17:10:00,34.2,25.4,30.38,NW,326,3.0,3.0,70,0.00,,,0.00,Wunderground v.1.15,2013-03-07 22:10:00,
2013-03-07 17:15:00,34.2,25.4,30.38,NNW,348,3.0,3.0,70,0.00,,,0.00,Wunderground v.1.15,2013-03-07 22:15:00,
2013-03-07 17:20:00,34.2,25.4,30.38,North,352,2.0,2.0,70,0.00,,,0.00,Wunderground v.1.15,2013-03-07 22:20:00,
2013-03-07 17:30:00,34.0,25.2,30.38,NW,312,2.0,5.0,70,0.00,,,0.00,Wunderground v.1.15,2013-03-07 22:30:00,
2013-03-07 17:35:00,33.9,25.1,30.38,NNW,343,3.0,6.0,70,0.00,,,0.00,Wunderground v.1.15,2013-03-07 22:35:00,
2013-03-07 17:40:00,33.7,25.0,30.38,NNW,347,4.0,4.0,70,0.00,,,0.00,Wunderground v.1.15,2013-03-07 22:40:00,
2013-03-07 17:45:00,33.5,24.8,30.38,North,4,4.0,4.0,70,0.00,,,0.00,Wunderground v.1.15,2013-03-07 22:45:00,
2013-03-07 17:55:00,33.4,24.7,30.39,NNE,16,4.0,8.0,70,0.00,,,0.00,Wunderground v.1.15,2013-03-07 22:55:00,
2013-03-07 18:00:00,33.4,24.7,30.39,NW,322,4.0,4.0,70,0.00,,,0.00,Wunderground v.1.15,2013-03-07 23:00:00,
2013-03-07 18:05:00,33.3,24.2,30.39,NNE,29,2.0,4.0,69,0.00,,,0.00,Wunderground v.1.15,2013-03-07 23:05:00,
2013-03-07 18:10:00,33.2,24.1,30.40,NE,36,2.0,2.0,69,0.00,,,0.00,Wunderground v.1.15,2013-03-07 23:10:00,
2013-03-07 18:20:00,33.1,23.0,30.40,WNW,302,3.0,3.0,66,0.00,,,0.00,Wunderground v.1.15,2013-03-07 23:20:00,
2013-03-07 18:25:00,33.0,22.5,30.40,North,6,4.0,4.0,65,0.00,,,0.00,Wunderground v.1.15,2013-03-07 23:25:00,
2013-03-07 18:30:00,32.9,22.4,30.41,NW,321,4.0,4.0,65,0.00,,,0.00,Wunderground v.1.15,2013-03-07 23:30:00,
2013-03-07 18:35:00,32.8,22.7,30.40,North,1,3.0,4.0,66,0.00,,,0.00,Wunderground v.1.15,2013-03-07 23:35:00,
2013-03-07 18:45:00,32.6,22.1,30.41,NW,316,4.0,5.0,65,0.00,,,0.00,Wunderground v.1.15,2013-03-07 23:45:00,
2013-03-07 18:50:00,32.5,22.0,30.41,NW,311,4.0,4.0,65,0.00,,,0.00,Wunderground v.1.15,2013-03-07 23:50:00,
2013-03-07 18:55:00,32.4,21.6,30.41,NW,308,3.0,4.0,64,0.00,,,0.00,Wunderground v.1.15,2013-03-07 23:55:00,
2013-03-07 19:00:00,32.4,21.2,30.41,NNW,327,2.0,2.0,63,0.00,,,0.00,Wunderground v.1.15,2013-03-08 00:00:00,
2013-03-07 19:05:00,32.3,21.1,30.41,NW,323,3.0,3.0,63,0.00,,,0.00,Wunderground v.1.15,2013-03-08 00:05:00,
2013-03-07 19:10:00,32.3,21.1,30.42,WNW,297,3.0,3.0,63,0.00,,,0.00,Wunderground v.1.15,2013-03-08 00:10:00,
2013-03-07 19:20:00,32.2,21.4,30.42,NE,49,3.0,3.0,64,0.00,,,0.00,Wunderground v.1.15,2013-03-08 00:20:00,
2013-03-07 19:25:00,32.2,21.4,30.43,NNE,18,3.0,5.0,64,0.00,,,0.00,Wunderground v.1.15,2013-03-08 00:25:00,
2013-03-07 19:30:00,32.3,21.8,30.43,NNW,328,3.0,3.0,65,0.00,,,0.00,Wunderground v.1.15,2013-03-08 00:30:00,
2013-03-07 19:35:00,32.2,21.4,30.43,NNW,339,2.0,3.0,64,0.00,,,0.00,Wunderground v.1.15,2013-03-08 00:35:00,
2013-03-07 19:45:00,32.0,21.2,30.43,North,8,2.0,2.0,64,0.00,,,0.00,Wunderground v.1.15,2013-03-08 00:45:00,
2013-03-07 19:50:00,32.0,21.6,30.43,North,356,2.0,3.0,65,0.00,,,0.00,Wunderground v.1.15,2013-03-08 00:50:00,
2013-03-07 20:00:00,31.9,21.1,30.43,NNE,26,2.0,2.0,64,0.00,,,0.00,Wunderground v.1.15,2013-03-08 01:00:00,
2013-03-07 20:05:00,31.7,20.9,30.43,North,11,1.0,2.0,64,0.00,,,0.00,Wunderground v.1.15,2013-03-08 01:05:00,
2013-03-07 20:10:00,31.6,21.2,30.43,NNW,340,1.0,1.0,65,0.00,,,0.00,Wunderground v.1.15,2013-03-08 01:10:00,
2013-03-07 20:15:00,31.5,21.1,30.42,NE,37,1.0,1.0,65,0.00,,,0.00,Wunderground v.1.15,2013-03-08 01:15:00,
2013-03-07 20:20:00,31.4,21.3,30.43,NNE,32,1.0,1.0,66,0.00,,,0.00,Wunderground v.1.15,2013-03-08 01:20:00,
2013-03-07 20:25:00,31.3,21.3,30.42,NNE,30,0.0,1.0,66,0.00,,,0.00,Wunderground v.1.15,2013-03-08 01:25:00,
2013-03-07 20:35:00,30.9,20.9,30.43,NNE,33,0.0,1.0,66,0.00,,,0.00,Wunderground v.1.15,2013-03-08 01:35:00,
2013-03-07 20:40:00,30.9,20.9,30.43,North,4,0.0,0.0,66,0.00,,,0.00,Wunderground v.1.15,2013-03-08 01:40:00,
2013-03-07 20:45:00,30.8,20.8,30.43,North,356,0.0,0.0,66,0.00,,,0.00,Wunderground v.1.15,2013-03-08 01:45:00,
2013-03-07 20:55:00,30.5,20.8,30.43,North,356,0.0,0.0,67,0.00,,,0.00,Wunderground v.1.15,2013-03-08 01:55:00,
2013-03-07 21:00:00,30.4,21.4,30.43,North,356,0.0,0.0,69,0.00,,,0.00,Wunderground v.1.15,2013-03-08 02:00:00,
2013-03-07 21:10:00,30.4,21.4,30.43,NNE,24,0.0,0.0,69,0.00,,,0.00,Wunderground v.1.15,2013-03-08 02:10:00,
2013-03-07 21:15:00,30.4,21.4,30.43,North,10,0.0,0.0,69,0.00,,,0.00,Wunderground v.1.15,2013-03-08 02:15:00,
2013-03-07 21:20:00,30.3,21.0,30.43,North,9,0.0,0.0,68,0.00,,,0.00,Wunderground v.1.15,2013-03-08 02:20:00,
2013-03-07 21:25:00,30.2,20.9,30.43,North,11,0.0,0.0,68,0.00,,,0.00,Wunderground v.1.15,2013-03-08 02:25:00,
2013-03-07 21:30:00,30.1,20.8,30.43,North,11,0.0,0.0,68,0.00,,,0.00,Wunderground v.1.15,2013-03-08 02:30:00,
2013-03-07 21:40:00,29.9,21.3,30.43,North,11,0.0,0.0,70,0.00,,,0.00,Wunderground v.1.15,2013-03-08 02:40:00,
2013-03-07 21:45:00,29.6,21.7,30.43,North,11,0.0,0.0,72,0.00,,,0.00,Wunderground v.1.15,2013-03-08 02:45:00,
2013-03-07 21:50:00,29.4,21.2,30.43,NW,321,0.0,0.0,71,0.00,,,0.00,Wunderground v.1.15,2013-03-08 02:50:00,
2013-03-07 21:55:00,29.5,20.9,30.43,NNW,335,0.0,0.0,70,0.00,,,0.00,Wunderground v.1.15,2013-03-08 02:55:00,
2013-03-07 22:00:00,29.6,20.7,30.43,NNW,333,0.0,0.0,69,0.00,,,0.00,Wunderground v.1.15,2013-03-08 03:00:00,
2013-03-07 22:10:00,29.4,20.8,30.43,NNW,333,0.0,1.0,70,0.00,,,0.00,Wunderground v.1.15,2013-03-08 03:10:00,
2013-03-07 22:15:00,29.3,20.7,30.43,NNW,333,0.0,1.0,70,0.00,,,0.00,Wunderground v.1.15,2013-03-08 03:15:00,
2013-03-07 22:20:00,29.2,21.0,30.43,NNW,333,0.0,0.0,71,0.00,,,0.00,Wunderground v.1.15,2013-03-08 03:20:00,
2013-03-07 22:25:00,29.2,21.0,30.43,NNW,333,0.0,0.0,71,0.00,,,0.00,Wunderground v.1.15,2013-03-08 03:25:00,
2013-03-07 22:30:00,28.9,20.7,30.43,NNW,333,0.0,0.0,71,0.00,,,0.00,Wunderground v.1.15,2013-03-08 03:30:00,
2013-03-07 22:35:00,28.7,20.8,30.43,NNW,333,0.0,0.0,72,0.00,,,0.00,Wunderground v.1.15,2013-03-08 03:35:00,
2013-03-07 22:45:00,27.9,21.0,30.43,NNW,333,0.0,0.0,75,0.00,,,0.00,Wunderground v.1.15,2013-03-08 03:45:00,
2013-03-07 22:50:00,27.5,20.6,30.43,NNW,333,0.0,0.0,75,0.00,,,0.00,Wunderground v.1.15,2013-03-08 03:50:00,
2013-03-07 22:55:00,27.2,20.0,30.43,NNW,333,0.0,0.0,74,0.00,,,0.00,Wunderground v.1.15,2013-03-08 03:55:00,
2013-03-07 23:00:00,27.0,19.8,30.43,NNW,333,0.0,0.0,74,0.00,,,0.00,Wunderground v.1.15,2013-03-08 04:00:00,
2013-03-07 23:10:00,26.2,20.0,30.43,NNW,333,0.0,0.0,77,0.00,,,0.00,Wunderground v.1.15,2013-03-08 04:10:00,
2013-03-07 23:15:00,25.6,19.7,30.43,NNW,333,0.0,0.0,78,0.00,,,0.00,Wunderground v.1.15,2013-03-08 04:15:00,
2013-03-07 23:20:00,25.3,19.7,30.43,NNW,333,0.0,0.0,79,0.00,,,0.00,Wunderground v.1.15,2013-03-08 04:20:00,
2013-03-07 23:25:00,25.4,19.8,30.43,NNW,333,0.0,0.0,79,0.00,,,0.00,Wunderground v.1.15,2013-03-08 04:25:00,
2013-03-07 23:30:00,25.4,20.1,30.43,NNW,333,0.0,0.0,80,0.00,,,0.00,Wunderground v.1.15,2013-03-08 04:30:00,
2013-03-07 23:35:00,25.2,20.5,30.43,NNW,333,0.0,0.0,82,0.00,,,0.00,Wunderground v.1.15,2013-03-08 04:35:00,
2013-03-07 23:45:00,24.8,20.1,30.43,NNW,333,0.0,0.0,82,0.00,,,0.00,Wunderground v.1.15,2013-03-08 04:45:00,
2013-03-07 23:50:00,24.7,20.0,30.43,NNW,333,0.0,0.0,82,0.00,,,0.00,Wunderground v.1.15,2013-03-08 04:50:00,
2013-03-07 23:55:00,24.6,19.9,30.43,NNW,333,0.0,0.0,82,0.00,,,0.00,Wunderground v.1.15,2013-03-08 04:55:00,